sensor_id;sensor_type;location;lat;lon;timestamp;P1;durP1;ratioP1;P2;durP2;ratioP2
6306;SDS011;3186;54.062;9.962;2023-05-07T00:01:01;8.73;;;6.90;;
6306;SDS011;3186;54.062;9.962;2023-05-07T00:03:27;9.97;;;6.57;;
6306;SDS011;3186;54.062;9.962;2023-05-07T00:05:53;6.73;;;6.00;;
6306;SDS011;3186;54.062;9.962;2023-05-07T00:08:19;8.93;;;5.97;;
6306;SDS011;3186;54.062;9.962;2023-05-07T00:10:47;11.17;;;7.00;;
6306;SDS011;3186;54.062;9.962;2023-05-07T00:13:13;8.13;;;6.33;;
6306;SDS011;3186;54.062;9.962;2023-05-07T00:15:39;10.13;;;6.67;;
6306;SDS011;3186;54.062;9.962;2023-05-07T00:18:05;13.07;;;7.90;;
6306;SDS011;3186;54.062;9.962;2023-05-07T00:20:31;9.03;;;7.13;;
6306;SDS011;3186;54.062;9.962;2023-05-07T00:22:57;9.10;;;7.00;;
6306;SDS011;3186;54.062;9.962;2023-05-07T00:25:22;9.17;;;6.90;;
6306;SDS011;3186;54.062;9.962;2023-05-07T00:27:48;8.23;;;6.70;;
6306;SDS011;3186;54.062;9.962;2023-05-07T00:30:14;11.50;;;7.37;;
6306;SDS011;3186;54.062;9.962;2023-05-07T00:32:40;10.27;;;7.10;;
6306;SDS011;3186;54.062;9.962;2023-05-07T00:35:06;10.80;;;7.57;;
6306;SDS011;3186;54.062;9.962;2023-05-07T00:37:32;8.73;;;7.33;;
6306;SDS011;3186;54.062;9.962;2023-05-07T00:39:58;9.73;;;6.67;;
6306;SDS011;3186;54.062;9.962;2023-05-07T00:42:24;7.57;;;6.60;;
6306;SDS011;3186;54.062;9.962;2023-05-07T00:44:50;9.13;;;7.40;;
6306;SDS011;3186;54.062;9.962;2023-05-07T00:47:16;6.90;;;5.77;;
6306;SDS011;3186;54.062;9.962;2023-05-07T00:49:42;9.30;;;7.00;;
6306;SDS011;3186;54.062;9.962;2023-05-07T00:52:13;8.23;;;6.13;;
6306;SDS011;3186;54.062;9.962;2023-05-07T00:54:41;9.87;;;7.23;;
6306;SDS011;3186;54.062;9.962;2023-05-07T00:57:07;9.83;;;6.60;;
6306;SDS011;3186;54.062;9.962;2023-05-07T00:59:36;9.73;;;6.40;;
6306;SDS011;3186;54.062;9.962;2023-05-07T01:02:03;8.80;;;6.97;;
6306;SDS011;3186;54.062;9.962;2023-05-07T01:04:31;7.63;;;6.33;;
6306;SDS011;3186;54.062;9.962;2023-05-07T01:06:57;10.97;;;8.03;;
6306;SDS011;3186;54.062;9.962;2023-05-07T01:09:24;9.03;;;6.83;;
6306;SDS011;3186;54.062;9.962;2023-05-07T01:11:53;8.43;;;6.43;;
6306;SDS011;3186;54.062;9.962;2023-05-07T01:14:23;9.10;;;6.70;;
6306;SDS011;3186;54.062;9.962;2023-05-07T01:16:49;9.67;;;6.60;;
6306;SDS011;3186;54.062;9.962;2023-05-07T01:19:18;11.13;;;8.13;;
6306;SDS011;3186;54.062;9.962;2023-05-07T01:21:45;9.80;;;7.53;;
6306;SDS011;3186;54.062;9.962;2023-05-07T01:24:14;8.43;;;7.43;;
6306;SDS011;3186;54.062;9.962;2023-05-07T01:26:41;9.80;;;7.57;;
6306;SDS011;3186;54.062;9.962;2023-05-07T01:29:07;10.07;;;6.70;;
6306;SDS011;3186;54.062;9.962;2023-05-07T01:31:33;10.37;;;7.80;;
6306;SDS011;3186;54.062;9.962;2023-05-07T01:34:01;10.33;;;8.20;;
6306;SDS011;3186;54.062;9.962;2023-05-07T01:36:29;9.83;;;7.93;;
6306;SDS011;3186;54.062;9.962;2023-05-07T01:38:55;12.30;;;9.03;;
6306;SDS011;3186;54.062;9.962;2023-05-07T01:41:23;11.83;;;7.80;;
6306;SDS011;3186;54.062;9.962;2023-05-07T01:43:49;10.77;;;7.43;;
6306;SDS011;3186;54.062;9.962;2023-05-07T01:46:17;11.97;;;7.93;;
6306;SDS011;3186;54.062;9.962;2023-05-07T01:48:44;9.83;;;7.80;;
6306;SDS011;3186;54.062;9.962;2023-05-07T01:51:11;14.20;;;7.97;;
6306;SDS011;3186;54.062;9.962;2023-05-07T01:53:38;11.60;;;9.37;;
6306;SDS011;3186;54.062;9.962;2023-05-07T01:56:06;10.77;;;8.47;;
6306;SDS011;3186;54.062;9.962;2023-05-07T01:58:33;13.50;;;8.63;;
6306;SDS011;3186;54.062;9.962;2023-05-07T02:01:00;10.90;;;9.27;;
6306;SDS011;3186;54.062;9.962;2023-05-07T02:03:26;12.83;;;9.30;;
6306;SDS011;3186;54.062;9.962;2023-05-07T02:06:04;11.60;;;8.70;;
6306;SDS011;3186;54.062;9.962;2023-05-07T02:08:39;13.87;;;9.33;;
6306;SDS011;3186;54.062;9.962;2023-05-07T02:11:05;10.30;;;8.33;;
6306;SDS011;3186;54.062;9.962;2023-05-07T02:13:31;12.57;;;9.27;;
6306;SDS011;3186;54.062;9.962;2023-05-07T02:16:02;10.47;;;8.93;;
6306;SDS011;3186;54.062;9.962;2023-05-07T02:18:29;13.50;;;9.10;;
6306;SDS011;3186;54.062;9.962;2023-05-07T02:20:55;10.33;;;8.93;;
6306;SDS011;3186;54.062;9.962;2023-05-07T02:23:20;11.83;;;8.97;;
6306;SDS011;3186;54.062;9.962;2023-05-07T02:25:49;10.03;;;8.07;;
6306;SDS011;3186;54.062;9.962;2023-05-07T02:28:16;10.67;;;7.97;;
6306;SDS011;3186;54.062;9.962;2023-05-07T02:30:48;10.57;;;8.07;;
6306;SDS011;3186;54.062;9.962;2023-05-07T02:33:14;9.00;;;8.10;;
6306;SDS011;3186;54.062;9.962;2023-05-07T02:35:41;11.77;;;7.53;;
6306;SDS011;3186;54.062;9.962;2023-05-07T02:38:07;7.77;;;6.97;;
6306;SDS011;3186;54.062;9.962;2023-05-07T02:40:34;14.37;;;7.97;;
6306;SDS011;3186;54.062;9.962;2023-05-07T02:43:03;10.70;;;8.57;;
6306;SDS011;3186;54.062;9.962;2023-05-07T02:45:29;10.57;;;7.47;;
6306;SDS011;3186;54.062;9.962;2023-05-07T02:47:58;9.30;;;8.33;;
6306;SDS011;3186;54.062;9.962;2023-05-07T02:50:27;12.40;;;8.50;;
6306;SDS011;3186;54.062;9.962;2023-05-07T02:52:53;10.73;;;8.23;;
6306;SDS011;3186;54.062;9.962;2023-05-07T02:55:22;11.47;;;7.93;;
6306;SDS011;3186;54.062;9.962;2023-05-07T02:57:48;9.67;;;7.83;;
6306;SDS011;3186;54.062;9.962;2023-05-07T03:00:16;10.57;;;8.67;;
6306;SDS011;3186;54.062;9.962;2023-05-07T03:03:06;11.63;;;7.87;;
6306;SDS011;3186;54.062;9.962;2023-05-07T03:05:32;12.03;;;9.33;;
6306;SDS011;3186;54.062;9.962;2023-05-07T03:07:58;8.37;;;7.37;;
6306;SDS011;3186;54.062;9.962;2023-05-07T03:10:26;10.70;;;8.77;;
6306;SDS011;3186;54.062;9.962;2023-05-07T03:12:52;12.70;;;9.87;;
6306;SDS011;3186;54.062;9.962;2023-05-07T03:15:18;10.63;;;8.13;;
6306;SDS011;3186;54.062;9.962;2023-05-07T03:17:44;13.43;;;9.07;;
6306;SDS011;3186;54.062;9.962;2023-05-07T03:20:10;16.83;;;8.83;;
6306;SDS011;3186;54.062;9.962;2023-05-07T03:22:36;9.93;;;8.33;;
6306;SDS011;3186;54.062;9.962;2023-05-07T03:25:02;10.37;;;7.87;;
6306;SDS011;3186;54.062;9.962;2023-05-07T03:27:27;13.90;;;9.40;;
6306;SDS011;3186;54.062;9.962;2023-05-07T03:29:53;11.13;;;8.63;;
6306;SDS011;3186;54.062;9.962;2023-05-07T03:32:24;8.60;;;7.70;;
6306;SDS011;3186;54.062;9.962;2023-05-07T03:34:50;10.37;;;7.97;;
6306;SDS011;3186;54.062;9.962;2023-05-07T03:37:16;9.63;;;8.60;;
6306;SDS011;3186;54.062;9.962;2023-05-07T03:39:50;10.17;;;7.03;;
6306;SDS011;3186;54.062;9.962;2023-05-07T03:42:16;8.93;;;7.33;;
6306;SDS011;3186;54.062;9.962;2023-05-07T03:44:43;8.40;;;7.50;;
6306;SDS011;3186;54.062;9.962;2023-05-07T03:47:09;10.87;;;8.10;;
6306;SDS011;3186;54.062;9.962;2023-05-07T03:49:35;8.77;;;7.47;;
6306;SDS011;3186;54.062;9.962;2023-05-07T03:52:01;12.67;;;7.57;;
6306;SDS011;3186;54.062;9.962;2023-05-07T03:54:28;8.03;;;6.97;;
6306;SDS011;3186;54.062;9.962;2023-05-07T03:56:54;11.00;;;6.70;;
6306;SDS011;3186;54.062;9.962;2023-05-07T03:59:20;9.10;;;7.23;;
6306;SDS011;3186;54.062;9.962;2023-05-07T04:01:47;11.17;;;7.80;;
6306;SDS011;3186;54.062;9.962;2023-05-07T04:04:18;8.37;;;6.67;;
6306;SDS011;3186;54.062;9.962;2023-05-07T04:06:45;7.43;;;6.63;;
6306;SDS011;3186;54.062;9.962;2023-05-07T04:09:11;7.43;;;6.60;;
6306;SDS011;3186;54.062;9.962;2023-05-07T04:11:37;7.37;;;6.37;;
6306;SDS011;3186;54.062;9.962;2023-05-07T04:14:09;7.10;;;6.03;;
6306;SDS011;3186;54.062;9.962;2023-05-07T04:16:36;9.93;;;6.13;;
6306;SDS011;3186;54.062;9.962;2023-05-07T04:19:02;8.33;;;6.07;;
6306;SDS011;3186;54.062;9.962;2023-05-07T04:21:28;6.50;;;5.83;;
6306;SDS011;3186;54.062;9.962;2023-05-07T04:23:58;8.77;;;6.00;;
6306;SDS011;3186;54.062;9.962;2023-05-07T04:26:23;11.80;;;7.13;;
6306;SDS011;3186;54.062;9.962;2023-05-07T04:28:49;8.30;;;6.50;;
6306;SDS011;3186;54.062;9.962;2023-05-07T04:31:15;6.83;;;5.90;;
6306;SDS011;3186;54.062;9.962;2023-05-07T04:33:42;6.80;;;5.90;;
6306;SDS011;3186;54.062;9.962;2023-05-07T04:36:11;6.17;;;5.57;;
6306;SDS011;3186;54.062;9.962;2023-05-07T04:38:45;7.77;;;5.90;;
6306;SDS011;3186;54.062;9.962;2023-05-07T04:41:12;5.87;;;5.20;;
6306;SDS011;3186;54.062;9.962;2023-05-07T04:43:39;7.73;;;6.47;;
6306;SDS011;3186;54.062;9.962;2023-05-07T04:46:06;7.33;;;6.13;;
6306;SDS011;3186;54.062;9.962;2023-05-07T04:48:32;7.30;;;6.27;;
6306;SDS011;3186;54.062;9.962;2023-05-07T04:51:02;6.67;;;5.33;;
6306;SDS011;3186;54.062;9.962;2023-05-07T04:53:28;8.03;;;6.07;;
6306;SDS011;3186;54.062;9.962;2023-05-07T04:55:57;6.50;;;5.87;;
6306;SDS011;3186;54.062;9.962;2023-05-07T04:58:25;5.87;;;5.13;;
6306;SDS011;3186;54.062;9.962;2023-05-07T05:00:52;7.63;;;5.30;;
6306;SDS011;3186;54.062;9.962;2023-05-07T05:03:17;6.37;;;5.43;;
6306;SDS011;3186;54.062;9.962;2023-05-07T05:05:43;6.23;;;5.40;;
6306;SDS011;3186;54.062;9.962;2023-05-07T05:08:09;6.83;;;5.30;;
6306;SDS011;3186;54.062;9.962;2023-05-07T05:10:38;6.80;;;5.90;;
6306;SDS011;3186;54.062;9.962;2023-05-07T05:13:04;9.50;;;6.07;;
6306;SDS011;3186;54.062;9.962;2023-05-07T05:15:31;6.63;;;5.43;;
6306;SDS011;3186;54.062;9.962;2023-05-07T05:17:56;9.67;;;6.53;;
6306;SDS011;3186;54.062;9.962;2023-05-07T05:20:22;7.37;;;6.30;;
6306;SDS011;3186;54.062;9.962;2023-05-07T05:22:48;6.67;;;5.57;;
6306;SDS011;3186;54.062;9.962;2023-05-07T05:25:14;7.43;;;6.37;;
6306;SDS011;3186;54.062;9.962;2023-05-07T05:27:39;6.53;;;5.17;;
6306;SDS011;3186;54.062;9.962;2023-05-07T05:30:06;6.57;;;5.83;;
6306;SDS011;3186;54.062;9.962;2023-05-07T05:32:33;7.27;;;5.63;;
6306;SDS011;3186;54.062;9.962;2023-05-07T05:34:59;7.23;;;5.73;;
6306;SDS011;3186;54.062;9.962;2023-05-07T05:37:25;5.57;;;4.97;;
6306;SDS011;3186;54.062;9.962;2023-05-07T05:39:53;6.93;;;5.67;;
6306;SDS011;3186;54.062;9.962;2023-05-07T05:42:21;6.07;;;5.47;;
6306;SDS011;3186;54.062;9.962;2023-05-07T05:44:49;6.40;;;5.47;;
6306;SDS011;3186;54.062;9.962;2023-05-07T05:47:15;8.87;;;6.43;;
6306;SDS011;3186;54.062;9.962;2023-05-07T05:49:41;6.67;;;5.63;;
6306;SDS011;3186;54.062;9.962;2023-05-07T05:52:13;6.50;;;5.00;;
6306;SDS011;3186;54.062;9.962;2023-05-07T05:54:39;6.20;;;5.60;;
6306;SDS011;3186;54.062;9.962;2023-05-07T05:57:05;6.83;;;5.13;;
6306;SDS011;3186;54.062;9.962;2023-05-07T05:59:32;6.87;;;5.97;;
6306;SDS011;3186;54.062;9.962;2023-05-07T06:01:57;7.17;;;5.90;;
6306;SDS011;3186;54.062;9.962;2023-05-07T06:04:26;8.73;;;6.10;;
6306;SDS011;3186;54.062;9.962;2023-05-07T06:06:52;6.50;;;5.87;;
6306;SDS011;3186;54.062;9.962;2023-05-07T06:09:19;7.20;;;5.27;;
6306;SDS011;3186;54.062;9.962;2023-05-07T06:11:47;6.47;;;5.87;;
6306;SDS011;3186;54.062;9.962;2023-05-07T06:14:16;7.77;;;6.20;;
6306;SDS011;3186;54.062;9.962;2023-05-07T06:16:42;9.97;;;6.20;;
6306;SDS011;3186;54.062;9.962;2023-05-07T06:19:09;8.07;;;6.50;;
6306;SDS011;3186;54.062;9.962;2023-05-07T06:21:36;6.93;;;6.23;;
6306;SDS011;3186;54.062;9.962;2023-05-07T06:24:04;8.57;;;6.00;;
6306;SDS011;3186;54.062;9.962;2023-05-07T06:26:30;5.13;;;4.63;;
6306;SDS011;3186;54.062;9.962;2023-05-07T06:28:56;5.83;;;5.23;;
6306;SDS011;3186;54.062;9.962;2023-05-07T06:31:22;5.90;;;5.30;;
6306;SDS011;3186;54.062;9.962;2023-05-07T06:33:59;6.33;;;5.10;;
6306;SDS011;3186;54.062;9.962;2023-05-07T06:36:31;5.40;;;4.57;;
6306;SDS011;3186;54.062;9.962;2023-05-07T06:38:59;8.27;;;6.23;;
6306;SDS011;3186;54.062;9.962;2023-05-07T06:41:25;5.30;;;4.80;;
6306;SDS011;3186;54.062;9.962;2023-05-07T06:43:51;5.77;;;5.17;;
6306;SDS011;3186;54.062;9.962;2023-05-07T06:46:38;5.03;;;4.50;;
6306;SDS011;3186;54.062;9.962;2023-05-07T06:49:05;6.17;;;5.50;;
6306;SDS011;3186;54.062;9.962;2023-05-07T06:51:30;8.83;;;5.47;;
6306;SDS011;3186;54.062;9.962;2023-05-07T06:54:00;5.97;;;5.37;;
6306;SDS011;3186;54.062;9.962;2023-05-07T06:56:26;7.93;;;6.00;;
6306;SDS011;3186;54.062;9.962;2023-05-07T06:58:52;9.27;;;5.57;;
6306;SDS011;3186;54.062;9.962;2023-05-07T07:01:19;7.70;;;5.77;;
6306;SDS011;3186;54.062;9.962;2023-05-07T07:03:45;8.10;;;5.57;;
6306;SDS011;3186;54.062;9.962;2023-05-07T07:06:11;9.23;;;5.77;;
6306;SDS011;3186;54.062;9.962;2023-05-07T07:08:36;9.60;;;7.20;;
6306;SDS011;3186;54.062;9.962;2023-05-07T07:11:04;8.47;;;6.30;;
6306;SDS011;3186;54.062;9.962;2023-05-07T07:13:30;6.97;;;6.27;;
6306;SDS011;3186;54.062;9.962;2023-05-07T07:15:56;7.53;;;5.30;;
6306;SDS011;3186;54.062;9.962;2023-05-07T07:18:22;7.53;;;6.07;;
6306;SDS011;3186;54.062;9.962;2023-05-07T07:20:49;6.67;;;5.10;;
6306;SDS011;3186;54.062;9.962;2023-05-07T07:23:15;9.03;;;6.13;;
6306;SDS011;3186;54.062;9.962;2023-05-07T07:25:40;6.37;;;5.27;;
6306;SDS011;3186;54.062;9.962;2023-05-07T07:28:07;6.03;;;5.00;;
6306;SDS011;3186;54.062;9.962;2023-05-07T07:30:33;9.70;;;5.50;;
6306;SDS011;3186;54.062;9.962;2023-05-07T07:33:01;9.40;;;6.13;;
6306;SDS011;3186;54.062;9.962;2023-05-07T07:35:30;5.23;;;4.73;;
6306;SDS011;3186;54.062;9.962;2023-05-07T07:37:57;7.43;;;5.17;;
6306;SDS011;3186;54.062;9.962;2023-05-07T07:40:23;5.47;;;4.80;;
6306;SDS011;3186;54.062;9.962;2023-05-07T07:42:50;6.00;;;4.63;;
6306;SDS011;3186;54.062;9.962;2023-05-07T07:45:18;5.27;;;4.77;;
6306;SDS011;3186;54.062;9.962;2023-05-07T07:47:47;6.97;;;4.50;;
6306;SDS011;3186;54.062;9.962;2023-05-07T07:50:15;5.77;;;4.97;;
6306;SDS011;3186;54.062;9.962;2023-05-07T07:52:41;5.30;;;4.80;;
6306;SDS011;3186;54.062;9.962;2023-05-07T07:55:13;10.07;;;7.10;;
6306;SDS011;3186;54.062;9.962;2023-05-07T07:57:43;5.73;;;4.67;;
6306;SDS011;3186;54.062;9.962;2023-05-07T08:00:09;5.03;;;4.60;;
6306;SDS011;3186;54.062;9.962;2023-05-07T08:02:41;4.87;;;4.47;;
6306;SDS011;3186;54.062;9.962;2023-05-07T08:05:08;6.03;;;5.10;;
6306;SDS011;3186;54.062;9.962;2023-05-07T08:07:34;5.50;;;4.37;;
6306;SDS011;3186;54.062;9.962;2023-05-07T08:10:04;6.10;;;4.93;;
6306;SDS011;3186;54.062;9.962;2023-05-07T08:12:30;7.40;;;5.13;;
6306;SDS011;3186;54.062;9.962;2023-05-07T08:14:57;6.67;;;4.90;;
6306;SDS011;3186;54.062;9.962;2023-05-07T08:17:23;5.93;;;4.83;;
6306;SDS011;3186;54.062;9.962;2023-05-07T08:19:50;6.20;;;4.77;;
6306;SDS011;3186;54.062;9.962;2023-05-07T08:22:15;4.77;;;3.97;;
6306;SDS011;3186;54.062;9.962;2023-05-07T08:24:43;5.67;;;3.67;;
6306;SDS011;3186;54.062;9.962;2023-05-07T08:27:09;5.27;;;4.50;;
6306;SDS011;3186;54.062;9.962;2023-05-07T08:29:39;5.00;;;4.50;;
6306;SDS011;3186;54.062;9.962;2023-05-07T08:32:07;4.37;;;3.73;;
6306;SDS011;3186;54.062;9.962;2023-05-07T08:34:41;5.20;;;4.13;;
6306;SDS011;3186;54.062;9.962;2023-05-07T08:37:17;4.70;;;4.07;;
6306;SDS011;3186;54.062;9.962;2023-05-07T08:39:43;5.23;;;4.07;;
6306;SDS011;3186;54.062;9.962;2023-05-07T08:42:16;4.40;;;4.10;;
6306;SDS011;3186;54.062;9.962;2023-05-07T08:44:47;5.20;;;4.70;;
6306;SDS011;3186;54.062;9.962;2023-05-07T08:47:22;4.33;;;3.87;;
6306;SDS011;3186;54.062;9.962;2023-05-07T08:50:02;4.73;;;4.33;;
6306;SDS011;3186;54.062;9.962;2023-05-07T08:52:28;5.27;;;4.67;;
6306;SDS011;3186;54.062;9.962;2023-05-07T08:54:59;5.70;;;4.30;;
6306;SDS011;3186;54.062;9.962;2023-05-07T08:57:37;6.57;;;5.07;;
6306;SDS011;3186;54.062;9.962;2023-05-07T09:00:10;6.17;;;4.40;;
6306;SDS011;3186;54.062;9.962;2023-05-07T09:02:53;6.97;;;4.93;;
6306;SDS011;3186;54.062;9.962;2023-05-07T09:05:24;5.07;;;4.37;;
6306;SDS011;3186;54.062;9.962;2023-05-07T09:08:06;6.80;;;4.50;;
6306;SDS011;3186;54.062;9.962;2023-05-07T09:10:38;5.10;;;4.33;;
6306;SDS011;3186;54.062;9.962;2023-05-07T09:13:05;5.53;;;4.77;;
6306;SDS011;3186;54.062;9.962;2023-05-07T09:15:42;4.80;;;4.40;;
6306;SDS011;3186;54.062;9.962;2023-05-07T09:18:08;4.80;;;4.30;;
6306;SDS011;3186;54.062;9.962;2023-05-07T09:20:40;5.40;;;4.67;;
6306;SDS011;3186;54.062;9.962;2023-05-07T09:23:21;5.00;;;4.50;;
6306;SDS011;3186;54.062;9.962;2023-05-07T09:26:06;5.30;;;4.50;;
6306;SDS011;3186;54.062;9.962;2023-05-07T09:28:43;5.50;;;4.23;;
6306;SDS011;3186;54.062;9.962;2023-05-07T09:31:26;5.50;;;3.97;;
6306;SDS011;3186;54.062;9.962;2023-05-07T09:34:00;5.43;;;4.37;;
6306;SDS011;3186;54.062;9.962;2023-05-07T09:36:47;5.47;;;4.07;;
6306;SDS011;3186;54.062;9.962;2023-05-07T09:39:48;5.83;;;4.47;;
6306;SDS011;3186;54.062;9.962;2023-05-07T09:42:29;6.50;;;4.47;;
6306;SDS011;3186;54.062;9.962;2023-05-07T09:45:09;5.73;;;4.50;;
6306;SDS011;3186;54.062;9.962;2023-05-07T09:51:15;4.73;;;3.97;;
6306;SDS011;3186;54.062;9.962;2023-05-07T09:54:00;7.37;;;4.17;;
6306;SDS011;3186;54.062;9.962;2023-05-07T09:56:59;4.03;;;3.67;;
6306;SDS011;3186;54.062;9.962;2023-05-07T10:02:46;5.83;;;3.87;;
6306;SDS011;3186;54.062;9.962;2023-05-07T10:05:39;5.00;;;3.40;;
6306;SDS011;3186;54.062;9.962;2023-05-07T10:08:36;5.30;;;3.63;;
6306;SDS011;3186;54.062;9.962;2023-05-07T10:11:35;6.47;;;3.87;;
6306;SDS011;3186;54.062;9.962;2023-05-07T10:14:09;6.13;;;3.77;;
6306;SDS011;3186;54.062;9.962;2023-05-07T10:16:42;7.73;;;3.70;;
6306;SDS011;3186;54.062;9.962;2023-05-07T10:19:19;3.87;;;3.47;;
6306;SDS011;3186;54.062;9.962;2023-05-07T10:22:23;4.90;;;3.60;;
6306;SDS011;3186;54.062;9.962;2023-05-07T10:25:37;3.60;;;3.30;;
6306;SDS011;3186;54.062;9.962;2023-05-07T10:32:54;4.23;;;3.50;;
6306;SDS011;3186;54.062;9.962;2023-05-07T10:36:07;3.57;;;3.10;;
6306;SDS011;3186;54.062;9.962;2023-05-07T10:39:44;8.63;;;4.00;;
6306;SDS011;3186;54.062;9.962;2023-05-07T10:43:10;4.13;;;3.73;;
6306;SDS011;3186;54.062;9.962;2023-05-07T10:46:18;4.03;;;3.50;;
6306;SDS011;3186;54.062;9.962;2023-05-07T10:49:27;4.17;;;3.60;;
6306;SDS011;3186;54.062;9.962;2023-05-07T10:53:29;6.77;;;3.57;;
6306;SDS011;3186;54.062;9.962;2023-05-07T11:06:13;3.77;;;3.10;;
6306;SDS011;3186;54.062;9.962;2023-05-07T11:17:08;3.07;;;2.77;;
6306;SDS011;3186;54.062;9.962;2023-05-07T11:20:16;3.30;;;2.97;;
6306;SDS011;3186;54.062;9.962;2023-05-07T11:27:53;3.70;;;2.80;;
6306;SDS011;3186;54.062;9.962;2023-05-07T11:31:01;8.13;;;2.73;;
6306;SDS011;3186;54.062;9.962;2023-05-07T11:34:33;3.27;;;2.70;;
6306;SDS011;3186;54.062;9.962;2023-05-07T11:44:50;2.70;;;2.50;;
6306;SDS011;3186;54.062;9.962;2023-05-07T11:51:12;4.30;;;3.03;;
6306;SDS011;3186;54.062;9.962;2023-05-07T11:54:10;2.80;;;2.40;;
6306;SDS011;3186;54.062;9.962;2023-05-07T11:57:44;4.43;;;2.67;;
6306;SDS011;3186;54.062;9.962;2023-05-07T12:07:55;2.90;;;2.10;;
6306;SDS011;3186;54.062;9.962;2023-05-07T12:11:26;4.03;;;3.20;;
6306;SDS011;3186;54.062;9.962;2023-05-07T12:22:17;2.60;;;2.40;;
6306;SDS011;3186;54.062;9.962;2023-05-07T12:33:33;2.73;;;2.50;;
6306;SDS011;3186;54.062;9.962;2023-05-07T12:37:27;2.87;;;2.47;;
6306;SDS011;3186;54.062;9.962;2023-05-07T12:40:55;3.73;;;2.40;;
6306;SDS011;3186;54.062;9.962;2023-05-07T12:43:23;2.40;;;2.10;;
6306;SDS011;3186;54.062;9.962;2023-05-07T12:45:53;2.60;;;2.40;;
6306;SDS011;3186;54.062;9.962;2023-05-07T12:48:20;3.27;;;2.20;;
6306;SDS011;3186;54.062;9.962;2023-05-07T12:50:50;3.23;;;2.30;;
6306;SDS011;3186;54.062;9.962;2023-05-07T12:53:16;3.13;;;2.30;;
6306;SDS011;3186;54.062;9.962;2023-05-07T12:55:45;3.13;;;2.20;;
6306;SDS011;3186;54.062;9.962;2023-05-07T13:00:42;3.57;;;2.17;;
6306;SDS011;3186;54.062;9.962;2023-05-07T13:03:08;2.10;;;1.90;;
6306;SDS011;3186;54.062;9.962;2023-05-07T13:05:35;2.30;;;2.00;;
6306;SDS011;3186;54.062;9.962;2023-05-07T13:08:01;2.20;;;2.03;;
6306;SDS011;3186;54.062;9.962;2023-05-07T13:10:27;3.37;;;2.00;;
6306;SDS011;3186;54.062;9.962;2023-05-07T13:12:56;2.23;;;2.03;;
6306;SDS011;3186;54.062;9.962;2023-05-07T13:15:21;3.70;;;1.80;;
6306;SDS011;3186;54.062;9.962;2023-05-07T13:17:48;2.17;;;1.97;;
6306;SDS011;3186;54.062;9.962;2023-05-07T13:20:14;1.87;;;1.77;;
6306;SDS011;3186;54.062;9.962;2023-05-07T13:22:40;1.97;;;1.77;;
6306;SDS011;3186;54.062;9.962;2023-05-07T13:25:06;2.10;;;1.70;;
6306;SDS011;3186;54.062;9.962;2023-05-07T13:27:32;2.03;;;1.93;;
6306;SDS011;3186;54.062;9.962;2023-05-07T13:30:02;2.60;;;1.93;;
6306;SDS011;3186;54.062;9.962;2023-05-07T13:32:29;2.27;;;2.07;;
6306;SDS011;3186;54.062;9.962;2023-05-07T13:34:55;1.90;;;1.70;;
6306;SDS011;3186;54.062;9.962;2023-05-07T13:37:21;1.83;;;1.73;;
6306;SDS011;3186;54.062;9.962;2023-05-07T13:39:46;2.27;;;1.90;;
6306;SDS011;3186;54.062;9.962;2023-05-07T13:42:12;2.00;;;1.90;;
6306;SDS011;3186;54.062;9.962;2023-05-07T13:44:38;2.10;;;1.80;;
6306;SDS011;3186;54.062;9.962;2023-05-07T13:47:04;1.80;;;1.60;;
6306;SDS011;3186;54.062;9.962;2023-05-07T13:49:30;1.77;;;1.67;;
6306;SDS011;3186;54.062;9.962;2023-05-07T13:51:56;2.00;;;1.73;;
6306;SDS011;3186;54.062;9.962;2023-05-07T13:54:22;2.37;;;1.80;;
6306;SDS011;3186;54.062;9.962;2023-05-07T13:56:48;2.83;;;2.10;;
6306;SDS011;3186;54.062;9.962;2023-05-07T13:59:14;2.40;;;2.20;;
6306;SDS011;3186;54.062;9.962;2023-05-07T14:01:40;2.50;;;1.83;;
6306;SDS011;3186;54.062;9.962;2023-05-07T14:04:07;2.10;;;1.87;;
6306;SDS011;3186;54.062;9.962;2023-05-07T14:06:33;2.67;;;2.03;;
6306;SDS011;3186;54.062;9.962;2023-05-07T14:08:59;2.27;;;1.90;;
6306;SDS011;3186;54.062;9.962;2023-05-07T14:11:25;1.77;;;1.67;;
6306;SDS011;3186;54.062;9.962;2023-05-07T14:13:51;2.07;;;1.83;;
6306;SDS011;3186;54.062;9.962;2023-05-07T14:16:16;3.67;;;1.73;;
6306;SDS011;3186;54.062;9.962;2023-05-07T14:18:42;2.30;;;1.60;;
6306;SDS011;3186;54.062;9.962;2023-05-07T14:21:08;2.00;;;1.63;;
6306;SDS011;3186;54.062;9.962;2023-05-07T14:23:34;2.03;;;1.70;;
6306;SDS011;3186;54.062;9.962;2023-05-07T14:26:01;1.70;;;1.60;;
6306;SDS011;3186;54.062;9.962;2023-05-07T14:28:26;1.80;;;1.70;;
6306;SDS011;3186;54.062;9.962;2023-05-07T14:30:52;2.20;;;1.67;;
6306;SDS011;3186;54.062;9.962;2023-05-07T14:33:18;1.80;;;1.60;;
6306;SDS011;3186;54.062;9.962;2023-05-07T14:35:44;1.70;;;1.60;;
6306;SDS011;3186;54.062;9.962;2023-05-07T14:38:13;1.70;;;1.53;;
6306;SDS011;3186;54.062;9.962;2023-05-07T14:40:40;1.77;;;1.67;;
6306;SDS011;3186;54.062;9.962;2023-05-07T14:43:06;1.90;;;1.80;;
6306;SDS011;3186;54.062;9.962;2023-05-07T14:45:32;1.63;;;1.53;;
6306;SDS011;3186;54.062;9.962;2023-05-07T14:47:57;1.73;;;1.63;;
6306;SDS011;3186;54.062;9.962;2023-05-07T14:50:23;1.53;;;1.43;;
6306;SDS011;3186;54.062;9.962;2023-05-07T14:52:49;1.73;;;1.63;;
6306;SDS011;3186;54.062;9.962;2023-05-07T14:55:15;1.83;;;1.57;;
6306;SDS011;3186;54.062;9.962;2023-05-07T14:57:41;2.80;;;1.80;;
6306;SDS011;3186;54.062;9.962;2023-05-07T15:00:07;2.30;;;1.90;;
6306;SDS011;3186;54.062;9.962;2023-05-07T15:02:34;3.73;;;1.90;;
6306;SDS011;3186;54.062;9.962;2023-05-07T15:05:00;1.80;;;1.70;;
6306;SDS011;3186;54.062;9.962;2023-05-07T15:07:26;1.70;;;1.60;;
6306;SDS011;3186;54.062;9.962;2023-05-07T15:09:52;1.73;;;1.50;;
6306;SDS011;3186;54.062;9.962;2023-05-07T15:12:18;2.83;;;1.87;;
6306;SDS011;3186;54.062;9.962;2023-05-07T15:14:44;2.57;;;1.97;;
6306;SDS011;3186;54.062;9.962;2023-05-07T15:17:11;2.10;;;1.90;;
6306;SDS011;3186;54.062;9.962;2023-05-07T15:19:37;2.27;;;2.10;;
6306;SDS011;3186;54.062;9.962;2023-05-07T15:22:02;2.17;;;1.80;;
6306;SDS011;3186;54.062;9.962;2023-05-07T15:24:30;1.70;;;1.60;;
6306;SDS011;3186;54.062;9.962;2023-05-07T15:26:56;4.27;;;2.03;;
6306;SDS011;3186;54.062;9.962;2023-05-07T15:29:23;2.27;;;2.00;;
6306;SDS011;3186;54.062;9.962;2023-05-07T15:31:50;1.90;;;1.70;;
6306;SDS011;3186;54.062;9.962;2023-05-07T15:34:17;2.90;;;1.80;;
6306;SDS011;3186;54.062;9.962;2023-05-07T15:36:43;2.83;;;2.23;;
6306;SDS011;3186;54.062;9.962;2023-05-07T15:39:08;3.43;;;1.53;;
6306;SDS011;3186;54.062;9.962;2023-05-07T15:41:35;2.03;;;1.90;;
6306;SDS011;3186;54.062;9.962;2023-05-07T15:44:02;2.43;;;2.00;;
6306;SDS011;3186;54.062;9.962;2023-05-07T15:46:28;2.57;;;1.80;;
6306;SDS011;3186;54.062;9.962;2023-05-07T15:48:54;1.93;;;1.77;;
6306;SDS011;3186;54.062;9.962;2023-05-07T15:51:21;2.10;;;1.93;;
6306;SDS011;3186;54.062;9.962;2023-05-07T15:53:47;1.97;;;1.63;;
6306;SDS011;3186;54.062;9.962;2023-05-07T15:56:14;3.43;;;2.13;;
6306;SDS011;3186;54.062;9.962;2023-05-07T15:58:39;2.20;;;1.80;;
6306;SDS011;3186;54.062;9.962;2023-05-07T16:01:05;4.70;;;2.00;;
6306;SDS011;3186;54.062;9.962;2023-05-07T16:03:31;2.13;;;1.93;;
6306;SDS011;3186;54.062;9.962;2023-05-07T16:05:57;2.13;;;1.60;;
6306;SDS011;3186;54.062;9.962;2023-05-07T16:08:25;2.50;;;1.70;;
6306;SDS011;3186;54.062;9.962;2023-05-07T16:10:51;3.40;;;1.70;;
6306;SDS011;3186;54.062;9.962;2023-05-07T16:13:17;2.20;;;1.80;;
6306;SDS011;3186;54.062;9.962;2023-05-07T16:15:44;5.40;;;1.77;;
6306;SDS011;3186;54.062;9.962;2023-05-07T16:18:10;2.37;;;1.60;;
6306;SDS011;3186;54.062;9.962;2023-05-07T16:20:40;1.90;;;1.80;;
6306;SDS011;3186;54.062;9.962;2023-05-07T16:23:06;3.00;;;1.90;;
6306;SDS011;3186;54.062;9.962;2023-05-07T16:25:31;2.53;;;2.03;;
6306;SDS011;3186;54.062;9.962;2023-05-07T16:27:57;1.80;;;1.70;;
6306;SDS011;3186;54.062;9.962;2023-05-07T16:30:23;2.13;;;1.93;;
6306;SDS011;3186;54.062;9.962;2023-05-07T16:32:49;1.87;;;1.73;;
6306;SDS011;3186;54.062;9.962;2023-05-07T16:35:15;3.60;;;1.87;;
6306;SDS011;3186;54.062;9.962;2023-05-07T16:37:40;2.47;;;1.80;;
6306;SDS011;3186;54.062;9.962;2023-05-07T16:40:07;3.17;;;2.17;;
6306;SDS011;3186;54.062;9.962;2023-05-07T16:42:33;4.93;;;1.60;;
6306;SDS011;3186;54.062;9.962;2023-05-07T16:45:00;2.63;;;2.00;;
6306;SDS011;3186;54.062;9.962;2023-05-07T16:47:27;3.10;;;2.67;;